Tracy, MN

1:58 AM CDT on June 28, 2017 (GMT -0500)
Tracy

Weather History for KTKC - April, 2014

Change the Weather History Date:

Monday, April 21, 2014

  Actual Average (KMML) Record (KMML)
Temperature  
Mean Temperature 53 °F -  
Max Temperature 65 °F 59 °F 84 °F (1990)
Min Temperature 42 °F 37 °F 24 °F (1978)
Degree Days  
Heating Degree Days 12    
Growing Degree Days 3 (Base 50)    
Moisture  
Dew Point 40 °F    
Average Humidity 55    
Maximum Humidity 89    
Minimum Humidity 36    
Precipitation  
Precipitation 0.00 in - - ()
Sea Level Pressure  
Sea Level Pressure 30.03 in    
Wind  
Wind Speed 12 mph (NNW)    
Max Wind Speed 25 mph    
Max Gust Speed 33 mph    
Visibility 10 miles    
Events Rain , Thunderstorm    
Averages and records for this station are not official NWS values.
T = Trace of Precipitation, MM = Missing Value Source: NWS Daily Summary

Daily Weather History Graph

Daily Weather History Graph

Search for Another Location

Airport or City:

Trip Planner

Search our weather history database for the weather conditions in past years. The results will help you decide how hot, cold, wet, or windy it might be!

Date:

Astronomy

Apr. 21, 2014 Rise Set
Actual Time 6:28 AM CDT 8:14 PM CDT
Civil Twilight 5:58 AM CDT 8:45 PM CDT
Nautical Twilight 5:20 AM CDT 9:22 PM CDT
Astronomical Twilight 4:40 AM CDT 10:03 PM CDT
Moon 1:48 AM CDT (4/21) 11:53 AM CDT (4/21)
Length of Visible Light 14h 47m
Length of Day
13h 45m
Waning Gibbous, 57% of the Moon is Illuminated
Apr 21
Waning Gibbous
Apr 22
Last Quarter
Apr 29
New
May 6
First Quarter
May 14
Full

Hourly Weather History & Observations

Time (CDT) Temp. Dew Point Humidity Pressure Visibility Wind Dir Wind Speed Gust Speed Precip Events Conditions
12:13 AM 61.0 °F 54.5 °F 79% 29.90 in 10.0 mi SE 10.4 mph - N/A   Clear
12:32 AM 60.1 °F 54.3 °F 81% 29.89 in 10.0 mi SE 10.4 mph - N/A   Clear
12:52 AM 59.9 °F 55.0 °F 84% 29.89 in 10.0 mi SE 9.2 mph - N/A   Clear
1:12 AM 59.0 °F 55.0 °F 87% 29.89 in 7.0 mi SE 9.2 mph - N/A   Clear
1:32 AM 57.6 °F 54.0 °F 88% 29.89 in 7.0 mi SSE 6.9 mph - N/A   Clear
1:52 AM 57.4 °F 54.1 °F 89% 29.89 in 7.0 mi Calm Calm - N/A   Clear
2:12 AM 58.1 °F 54.5 °F 88% 29.88 in 7.0 mi SSE 3.5 mph - N/A   Scattered Clouds
2:32 AM 58.1 °F 54.3 °F 87% 29.88 in 10.0 mi South 4.6 mph - N/A Thunderstorm Thunderstorm
2:52 AM 58.1 °F 54.0 °F 86% 29.88 in 10.0 mi SSW 5.8 mph - N/A   Clear
3:13 AM 59.2 °F 53.6 °F 82% 29.89 in 10.0 mi SW 8.1 mph - N/A   Mostly Cloudy
3:32 AM 59.0 °F 52.9 °F 80% 29.88 in 10.0 mi Calm Calm - N/A Thunderstorm Scattered Clouds
3:52 AM 58.1 °F 52.5 °F 82% 29.87 in 10.0 mi West 3.5 mph - N/A Rain Light Rain
4:13 AM 64.9 °F 48.0 °F 54% 29.87 in 10.0 mi WSW 9.2 mph 20.7 mph N/A Rain , Thunderstorm Light Thunderstorms and Rain
4:32 AM 58.5 °F 51.1 °F 76% 29.91 in 10.0 mi NW 18.4 mph 26.5 mph N/A Thunderstorm Mostly Cloudy
4:52 AM 55.9 °F 49.5 °F 79% 29.92 in 10.0 mi NNW 15.0 mph - N/A   Scattered Clouds
5:13 AM 54.5 °F 49.1 °F 82% 29.92 in 10.0 mi NNW 12.7 mph - N/A   Clear
5:33 AM 53.8 °F 47.3 °F 79% 29.94 in 10.0 mi NW 12.7 mph - N/A   Clear
5:52 AM 52.7 °F 46.2 °F 79% 29.94 in 10.0 mi NW 13.8 mph - N/A   Clear
6:12 AM 51.8 °F 44.1 °F 75% 29.95 in 10.0 mi NW 13.8 mph - N/A Thunderstorm Thunderstorm
6:32 AM 51.8 °F 41.4 °F 68% 29.96 in 10.0 mi NNW 12.7 mph 20.7 mph N/A   Clear
6:52 AM 52.2 °F 39.9 °F 63% 29.97 in 10.0 mi NNW 13.8 mph - N/A   Clear
7:12 AM 51.1 °F 39.2 °F 64% 29.98 in 10.0 mi NNW 11.5 mph - N/A   Clear
7:32 AM 52.7 °F 38.3 °F 58% 29.99 in 10.0 mi NNW 12.7 mph 19.6 mph N/A   Clear
7:52 AM 53.1 °F 38.7 °F 58% 30.00 in 10.0 mi NNW 12.7 mph - N/A   Clear
8:12 AM 54.0 °F 39.0 °F 57% 30.01 in 10.0 mi NNW 15.0 mph - N/A   Clear
8:32 AM 54.3 °F 39.4 °F 57% 30.01 in 10.0 mi NNW 13.8 mph - N/A   Clear
8:52 AM 57.2 °F 38.8 °F 50% 30.02 in 10.0 mi NNW 15.0 mph - N/A   Clear
9:13 AM 58.8 °F 37.9 °F 46% 30.03 in 10.0 mi NNW 18.4 mph 21.9 mph N/A   Clear
9:32 AM 59.2 °F 36.9 °F 43% 30.03 in 10.0 mi NNW 16.1 mph 26.5 mph N/A   Clear
9:52 AM 59.9 °F 37.2 °F 43% 30.04 in 10.0 mi NNW 18.4 mph 25.3 mph N/A   Clear
10:13 AM 61.7 °F 36.7 °F 39% 30.04 in 10.0 mi North 19.6 mph 24.2 mph N/A   Clear
10:33 AM 61.9 °F 37.0 °F 40% 30.04 in 10.0 mi North 17.3 mph 25.3 mph N/A   Clear
10:52 AM 61.7 °F 35.2 °F 37% 30.04 in 10.0 mi NNW 23.0 mph 27.6 mph N/A   Clear
11:12 AM 62.1 °F 36.7 °F 39% 30.05 in 10.0 mi NNW 20.7 mph 33.4 mph N/A   Clear
11:32 AM 61.7 °F 36.0 °F 38% 30.05 in 10.0 mi NNW 21.9 mph 28.8 mph N/A   Clear
11:52 AM 62.2 °F 35.8 °F 37% 30.06 in 10.0 mi NNW 20.7 mph 28.8 mph N/A   Clear
12:12 PM 62.2 °F 36.9 °F 39% 30.06 in 10.0 mi NNW 19.6 mph 31.1 mph N/A   Clear
12:32 PM 62.8 °F 36.1 °F 37% 30.06 in 10.0 mi NNW 20.7 mph 33.4 mph N/A   Clear
12:52 PM 63.5 °F 36.5 °F 37% 30.05 in 10.0 mi NNW 21.9 mph 31.1 mph N/A   Clear
1:12 PM 63.7 °F 37.2 °F 38% 30.05 in 10.0 mi NNW 20.7 mph 28.8 mph N/A   Clear
1:33 PM 63.1 °F 37.9 °F 39% 30.06 in 10.0 mi NNW 24.2 mph 33.4 mph N/A   Clear
1:52 PM 63.1 °F 38.5 °F 40% 30.06 in 10.0 mi NNW 21.9 mph 32.2 mph N/A   Clear
2:12 PM 63.0 °F 39.2 °F 42% 30.07 in 10.0 mi NNW 20.7 mph 31.1 mph N/A   Scattered Clouds
2:32 PM 62.6 °F 39.4 °F 42% 30.08 in 10.0 mi NW 25.3 mph 31.1 mph N/A   Scattered Clouds
2:53 PM 61.3 °F 39.4 °F 44% 30.07 in 10.0 mi North 19.6 mph 28.8 mph N/A   Clear
3:12 PM 61.7 °F 39.4 °F 44% 30.08 in 10.0 mi North 23.0 mph 31.1 mph N/A   Clear
3:32 PM 61.0 °F 37.4 °F 42% 30.08 in 10.0 mi NNW 20.7 mph 29.9 mph N/A   Clear
3:52 PM 60.4 °F 36.3 °F 41% 30.07 in 10.0 mi North 25.3 mph 33.4 mph N/A   Clear
4:13 PM 59.7 °F 34.5 °F 39% 30.08 in 10.0 mi NNW 23.0 mph 31.1 mph N/A   Clear
4:32 PM 59.9 °F 34.7 °F 39% 30.08 in 10.0 mi NNW 20.7 mph 28.8 mph N/A   Clear
4:52 PM 59.9 °F 34.2 °F 38% 30.08 in 10.0 mi NNW 18.4 mph 28.8 mph N/A   Clear
5:12 PM 60.3 °F 33.1 °F 36% 30.08 in 10.0 mi North 20.7 mph 28.8 mph N/A   Clear
5:32 PM 59.5 °F 32.4 °F 36% 30.08 in 10.0 mi NNW 18.4 mph 27.6 mph N/A   Clear
5:53 PM 59.5 °F 32.4 °F 36% 30.09 in 10.0 mi NNW 18.4 mph 25.3 mph N/A   Clear
6:12 PM 59.4 °F 32.0 °F 36% 30.09 in 10.0 mi NNW 20.7 mph 28.8 mph N/A   Clear
6:32 PM 58.6 °F 32.0 °F 37% 30.09 in 10.0 mi NNW 17.3 mph 26.5 mph N/A   Clear
6:53 PM 57.6 °F 32.2 °F 38% 30.09 in 10.0 mi North 21.9 mph 27.6 mph N/A   Clear
7:12 PM 56.5 °F 32.0 °F 39% 30.10 in 10.0 mi North 21.9 mph 29.9 mph N/A   Clear
7:32 PM 55.6 °F 32.2 °F 41% 30.10 in 10.0 mi North 19.6 mph 26.5 mph N/A   Clear
7:53 PM 54.3 °F 31.8 °F 42% 30.10 in 10.0 mi North 17.3 mph 23.0 mph N/A   Clear
8:13 PM 52.7 °F 31.6 °F 45% 30.11 in 10.0 mi North 16.1 mph - N/A   Clear
8:32 PM 51.8 °F 30.6 °F 44% 30.12 in 10.0 mi North 10.4 mph - N/A   Clear
8:52 PM 50.2 °F 30.2 °F 46% 30.12 in 10.0 mi North 11.5 mph - N/A   Clear
9:13 PM 49.1 °F 30.6 °F 49% 30.13 in 10.0 mi North 10.4 mph - N/A   Clear
9:33 PM 47.8 °F 30.6 °F 51% 30.13 in 10.0 mi North 8.1 mph - N/A   Clear
9:53 PM 47.3 °F 30.6 °F 52% 30.14 in 10.0 mi NNW 8.1 mph - N/A   Clear
10:13 PM 46.0 °F 30.9 °F 56% 30.14 in 10.0 mi Calm Calm - N/A   Clear
10:33 PM 44.2 °F 30.7 °F 59% 30.15 in 10.0 mi Calm Calm - N/A   Clear
10:52 PM 43.0 °F 30.7 °F 62% 30.15 in 10.0 mi Calm Calm - N/A   Clear
11:12 PM 42.8 °F 30.9 °F 63% 30.15 in 10.0 mi Calm Calm - N/A   Clear
11:32 PM 42.8 °F 30.7 °F 62% 30.15 in 10.0 mi Calm Calm - N/A   Clear
11:53 PM 43.3 °F 30.7 °F 61% 30.14 in 10.0 mi Calm Calm - N/A   Clear